KFCI

Richmond Executive-Chesterfield County Airport

Richmond, Virginia, USA
METAR KFCI 230956Z AUTO 21003KT 10SM CLR 05/04 A3013 RMK AO2 SLP221 T00500039
Observed Flight Rules
Oct-23 @ 09:56 UTC (40 minutes ago) Visual Flight Rules
Wind Visibility Clouds
210° at 3 knots 10 miles
  • Clear skies
Temperatures Readings
Current 5°C / 41°F
Dewpoint 4°C / 39°F
Humidity 93%
Altimeter 30.13" Hg
Pressure 1022.1 hPa
Elevation 72
METAR KFCI 230956Z AUTO 21003KT 10SM CLR 05/04 A3013 RMK AO2 SLP221 T00500039
Observed Flight Rules
Oct-23 @ 09:56 UTC
(40 minutes ago)
VFR
Wind Visibility
210° at 3 knots 10 miles
Clouds
  • Clear skies
Temperature Dewpoint
5°C / 41°F 4°C / 39°F
Humidity Altimeter Pressure
93% 30.13" Hg 1022.1 hPa